createdAt,value
2022-10-18T00:22:58.687Z,68.64
2022-10-18T00:52:00.853Z,68.75
2022-10-18T01:21:00.614Z,69.03
2022-10-18T01:50:04.772Z,69.54
2022-10-18T02:19:06.253Z,69.53
2022-10-18T02:48:02.378Z,70.43
2022-10-18T03:17:04.399Z,70.86
2022-10-18T03:46:08.659Z,72.24
2022-10-18T04:15:14.396Z,72.5
2022-10-18T04:44:13.847Z,73.07
2022-10-18T05:13:15.353Z,72.3
2022-10-18T05:42:15.783Z,73.31
2022-10-18T06:11:31.580Z,73.63
2022-10-18T06:39:50.966Z,73.2
2022-10-18T07:08:59.170Z,72.56
2022-10-18T07:38:05.044Z,72.38
2022-10-18T08:07:13.586Z,72.27
2022-10-18T08:36:23.175Z,65.93
2022-10-18T09:05:28.519Z,59.58
2022-10-18T09:34:36.533Z,62.09
2022-10-18T10:03:30.243Z,64.53
2022-10-18T10:32:31.886Z,62.86
2022-10-18T11:01:26.272Z,60.42
2022-10-18T11:30:26.443Z,61.23
2022-10-18T11:59:29.620Z,59
2022-10-18T12:28:32.589Z,59.06
2022-10-18T12:57:25.067Z,58.93
2022-10-18T13:26:24.366Z,60.16
2022-10-18T13:55:08.030Z,61.08
2022-10-18T14:23:59.889Z,62
2022-10-18T14:52:53.632Z,63.25
2022-10-18T15:21:44.318Z,63.31
2022-10-18T15:50:42.762Z,65.57
2022-10-18T16:19:44.848Z,66.55
2022-10-18T16:48:50.313Z,68.11
2022-10-18T17:17:40.432Z,69
2022-10-18T17:46:29.774Z,70.77
2022-10-18T18:15:30.604Z,71.6
2022-10-18T18:44:27.214Z,72.2
2022-10-18T19:13:29.399Z,72.95
2022-10-18T19:42:32.684Z,73.63
2022-10-18T20:11:10.083Z,73.71
2022-10-18T20:40:11.822Z,74.29
2022-10-18T21:09:06.681Z,74.62
2022-10-18T21:38:05.873Z,75.57
2022-10-18T22:06:54.759Z,76.02
2022-10-18T22:35:51.314Z,75.85
2022-10-18T23:04:56.298Z,75.93
2022-10-18T23:34:01.892Z,77.87
